createdAt,value
2023-04-30T00:00:28.226Z,-1.98
2023-04-30T00:01:28.269Z,8.97
2023-04-30T00:02:28.411Z,10.26
2023-04-30T00:03:28.636Z,5.75
2023-04-30T00:04:28.554Z,5.75
2023-04-30T00:05:28.628Z,-0.69
2023-04-30T00:06:34.743Z,7.36
2023-04-30T00:07:28.786Z,1.56
2023-04-30T00:08:28.869Z,15.42
2023-04-30T00:09:28.966Z,6.40
2023-04-30T00:10:29.068Z,5.75
2023-04-30T00:11:29.142Z,5.43
2023-04-30T00:12:29.225Z,11.23
2023-04-30T00:13:29.296Z,7.36
2023-04-30T00:14:29.370Z,2.53
2023-04-30T00:15:29.449Z,1.24
2023-04-30T00:16:29.573Z,-2.95
2023-04-30T00:17:29.667Z,3.17
2023-04-30T00:18:29.718Z,5.75
2023-04-30T00:19:29.790Z,-2.95
2023-04-30T00:20:29.881Z,5.75
2023-04-30T00:21:29.964Z,4.14
2023-04-30T00:22:30.217Z,1.24
2023-04-30T00:23:30.126Z,13.16
2023-04-30T00:24:30.217Z,-1.34
2023-04-30T00:25:30.320Z,5.11
2023-04-30T00:26:30.423Z,12.52
2023-04-30T00:27:30.473Z,-1.34
2023-04-30T00:28:30.577Z,5.75
2023-04-30T00:29:30.669Z,7.04
2023-04-30T00:30:30.754Z,5.43
2023-04-30T00:31:30.871Z,6.72
2023-04-30T00:32:30.928Z,10.91
2023-04-30T00:33:30.997Z,6.40
2023-04-30T00:34:31.074Z,8.97
2023-04-30T00:35:31.158Z,5.43
2023-04-30T00:36:31.261Z,4.46
2023-04-30T00:37:37.273Z,-1.98
2023-04-30T00:38:31.357Z,5.11
2023-04-30T00:39:31.460Z,5.75
2023-04-30T00:40:31.517Z,11.87
2023-04-30T00:41:31.596Z,8.65
2023-04-30T00:42:31.673Z,5.11
2023-04-30T00:43:31.757Z,5.43
2023-04-30T00:44:31.828Z,2.85
2023-04-30T00:45:31.957Z,5.11
2023-04-30T00:46:32.040Z,7.36
2023-04-30T00:47:32.271Z,-4.88
2023-04-30T00:48:32.148Z,4.79
2023-04-30T00:49:32.218Z,5.75
2023-04-30T00:50:32.295Z,6.07
2023-04-30T00:51:32.375Z,3.50
2023-04-30T00:52:32.461Z,4.79
2023-04-30T00:53:32.539Z,4.79
2023-04-30T00:54:32.624Z,4.14
2023-04-30T00:55:32.705Z,4.79
2023-04-30T00:56:32.801Z,5.11
2023-04-30T00:57:32.902Z,4.79
2023-04-30T00:58:32.977Z,2.21
2023-04-30T00:59:33.064Z,1.56
2023-04-30T01:00:33.144Z,12.52
2023-04-30T01:01:33.286Z,-0.05
2023-04-30T01:02:33.420Z,12.84
2023-04-30T01:03:33.516Z,8.97
2023-04-30T01:04:33.491Z,4.46
2023-04-30T01:05:33.572Z,12.20
2023-04-30T01:06:33.722Z,7.36
2023-04-30T01:07:33.747Z,3.17
2023-04-30T01:08:40.267Z,15.10
2023-04-30T01:09:33.928Z,1.88
2023-04-30T01:10:34.003Z,4.46
2023-04-30T01:11:34.097Z,-3.27
2023-04-30T01:12:34.168Z,2.85
2023-04-30T01:13:34.260Z,-4.56
2023-04-30T01:14:34.312Z,4.46
2023-04-30T01:15:34.408Z,-2.30
2023-04-30T01:16:34.531Z,-3.92
2023-04-30T01:17:34.572Z,-0.69
2023-04-30T01:18:34.754Z,4.79
2023-04-30T01:19:34.769Z,-5.21
2023-04-30T01:20:34.820Z,2.21
2023-04-30T01:21:34.904Z,11.87
2023-04-30T01:22:34.998Z,-2.95
2023-04-30T01:23:35.118Z,-1.98
2023-04-30T01:24:35.160Z,6.72
2023-04-30T01:25:35.276Z,-4.24
2023-04-30T01:26:35.360Z,4.79
2023-04-30T01:27:35.428Z,5.75
2023-04-30T01:28:35.509Z,9.30
2023-04-30T01:29:35.602Z,-1.02
2023-04-30T01:30:35.666Z,-1.66
2023-04-30T01:31:35.762Z,2.21
2023-04-30T01:32:35.843Z,-3.59
2023-04-30T01:33:35.872Z,3.17
2023-04-30T01:34:35.957Z,-4.56
2023-04-30T01:35:36.047Z,6.07
2023-04-30T01:36:36.143Z,4.79
2023-04-30T01:37:36.215Z,4.79
2023-04-30T01:38:36.295Z,4.46
2023-04-30T01:39:42.812Z,13.49
2023-04-30T01:40:36.515Z,4.79
2023-04-30T01:41:36.548Z,4.46
2023-04-30T01:42:36.649Z,4.14
2023-04-30T01:43:36.725Z,2.21
2023-04-30T01:44:36.811Z,4.79
2023-04-30T01:45:36.895Z,14.45
2023-04-30T01:46:37.060Z,1.88
2023-04-30T01:47:37.095Z,7.04
2023-04-30T01:48:37.167Z,4.14
2023-04-30T01:49:37.251Z,12.52
2023-04-30T01:50:37.347Z,3.50
2023-04-30T01:51:37.442Z,3.82
2023-04-30T01:52:37.518Z,3.50
2023-04-30T01:53:37.614Z,9.62
2023-04-30T01:54:37.673Z,3.82
2023-04-30T01:55:37.764Z,0.92
2023-04-30T01:56:37.851Z,8.33
2023-04-30T01:57:37.930Z,4.46
2023-04-30T01:58:38.006Z,4.46
2023-04-30T01:59:38.106Z,4.46
2023-04-30T02:00:38.204Z,4.46
2023-04-30T02:01:38.350Z,4.79
2023-04-30T02:02:38.526Z,6.07
2023-04-30T02:03:38.660Z,4.46
2023-04-30T02:04:38.548Z,-1.66
2023-04-30T02:05:38.602Z,4.14
2023-04-30T02:06:38.792Z,4.14
2023-04-30T02:07:38.763Z,6.40
2023-04-30T02:08:38.836Z,-5.85
2023-04-30T02:09:38.940Z,3.50
2023-04-30T02:10:45.489Z,3.17
2023-04-30T02:11:39.098Z,-2.63
2023-04-30T02:12:39.182Z,13.81
2023-04-30T02:13:39.273Z,-3.27
2023-04-30T02:14:39.370Z,3.50
2023-04-30T02:15:39.447Z,4.14
2023-04-30T02:16:39.595Z,4.14
2023-04-30T02:17:39.663Z,3.50
2023-04-30T02:18:39.704Z,8.97
2023-04-30T02:19:39.790Z,3.50
2023-04-30T02:20:39.876Z,3.50
2023-04-30T02:21:40.001Z,3.82
2023-04-30T02:22:40.037Z,9.62
2023-04-30T02:23:40.112Z,3.82
2023-04-30T02:24:40.184Z,8.33
2023-04-30T02:25:40.269Z,13.16
2023-04-30T02:26:40.371Z,4.14
2023-04-30T02:27:40.437Z,10.59
2023-04-30T02:28:40.520Z,3.17
2023-04-30T02:29:40.597Z,9.62
2023-04-30T02:30:40.676Z,4.14
2023-04-30T02:31:40.855Z,11.87
2023-04-30T02:32:40.888Z,3.82
2023-04-30T02:33:40.904Z,3.17
2023-04-30T02:34:40.987Z,3.82
2023-04-30T02:35:41.105Z,6.40
2023-04-30T02:36:41.159Z,2.53
2023-04-30T02:37:41.262Z,9.94
2023-04-30T02:38:41.345Z,10.26
2023-04-30T02:39:41.432Z,1.88
2023-04-30T02:40:41.530Z,5.75
2023-04-30T02:41:48.460Z,3.50
2023-04-30T02:42:41.686Z,7.04
2023-04-30T02:43:41.765Z,3.82
2023-04-30T02:44:41.859Z,3.50
2023-04-30T02:45:41.966Z,3.17
2023-04-30T02:46:42.024Z,3.50
2023-04-30T02:47:42.134Z,5.75
2023-04-30T02:48:42.200Z,2.85
2023-04-30T02:49:42.286Z,8.65
2023-04-30T02:50:42.377Z,2.85
2023-04-30T02:51:42.470Z,-4.56
2023-04-30T02:52:42.511Z,2.53
2023-04-30T02:53:42.714Z,3.17
2023-04-30T02:54:42.698Z,2.21
2023-04-30T02:55:42.752Z,11.87
2023-04-30T02:56:42.835Z,2.53
2023-04-30T02:57:42.903Z,4.79
2023-04-30T02:58:43.005Z,3.82
2023-04-30T02:59:43.064Z,2.85
2023-04-30T03:00:43.149Z,8.97
2023-04-30T03:01:43.289Z,2.85
2023-04-30T03:02:43.496Z,3.17
2023-04-30T03:03:43.433Z,1.88
2023-04-30T03:04:43.476Z,3.17
2023-04-30T03:05:43.555Z,3.17
2023-04-30T03:06:43.736Z,2.21
2023-04-30T03:07:43.776Z,-3.59
2023-04-30T03:08:43.822Z,-1.98
2023-04-30T03:09:43.932Z,2.53
2023-04-30T03:10:44.008Z,3.17
2023-04-30T03:11:44.102Z,8.33
2023-04-30T03:12:50.646Z,9.94
2023-04-30T03:13:44.262Z,3.50
2023-04-30T03:14:44.363Z,12.84
2023-04-30T03:15:44.462Z,2.85
2023-04-30T03:16:44.568Z,0.92
2023-04-30T03:17:46.118Z,8.97
2023-04-30T03:18:44.691Z,-1.66
2023-04-30T03:19:44.755Z,3.17
2023-04-30T03:20:44.839Z,-3.27
2023-04-30T03:21:44.974Z,-5.53
2023-04-30T03:22:45.077Z,3.17
2023-04-30T03:23:45.122Z,3.50
2023-04-30T03:24:45.249Z,2.21
2023-04-30T03:25:45.299Z,3.17
2023-04-30T03:26:45.393Z,3.50
2023-04-30T03:27:45.487Z,3.17
2023-04-30T03:28:45.564Z,2.53
2023-04-30T03:29:45.646Z,7.04
2023-04-30T03:30:45.775Z,3.50
2023-04-30T03:31:45.858Z,2.85
2023-04-30T03:32:45.954Z,3.17
2023-04-30T03:33:46.008Z,3.17
2023-04-30T03:34:46.074Z,2.53
2023-04-30T03:35:46.180Z,0.92
2023-04-30T03:36:46.266Z,-2.95
2023-04-30T03:37:46.318Z,2.21
2023-04-30T03:38:46.398Z,1.88
2023-04-30T03:39:46.483Z,2.21
2023-04-30T03:40:46.570Z,11.23
2023-04-30T03:41:46.646Z,2.85
2023-04-30T03:42:47.720Z,2.85
2023-04-30T03:43:52.779Z,-4.56
2023-04-30T03:44:46.892Z,3.17
2023-04-30T03:45:46.983Z,2.53
2023-04-30T03:46:47.062Z,3.82
2023-04-30T03:47:47.169Z,2.21
2023-04-30T03:48:47.228Z,2.85
2023-04-30T03:49:47.310Z,6.40
2023-04-30T03:50:47.397Z,3.50
2023-04-30T03:51:47.488Z,2.85
2023-04-30T03:52:47.565Z,3.17
2023-04-30T03:53:47.648Z,2.21
2023-04-30T03:54:47.738Z,11.87
2023-04-30T03:55:47.833Z,6.07
2023-04-30T03:56:48.403Z,5.43
2023-04-30T03:57:47.984Z,-1.34
2023-04-30T03:58:48.079Z,9.94
2023-04-30T03:59:48.156Z,1.88
2023-04-30T04:00:48.254Z,13.16
2023-04-30T04:01:48.359Z,2.53
2023-04-30T04:02:48.426Z,3.17
2023-04-30T04:03:48.532Z,8.01
2023-04-30T04:04:48.610Z,2.53
2023-04-30T04:05:48.699Z,8.01
2023-04-30T04:06:48.800Z,2.53
2023-04-30T04:07:48.851Z,2.85
2023-04-30T04:08:48.940Z,3.50
2023-04-30T04:09:49.022Z,3.50
2023-04-30T04:10:49.108Z,8.97
2023-04-30T04:11:49.189Z,2.21
2023-04-30T04:12:49.271Z,3.82
2023-04-30T04:13:49.344Z,3.50
2023-04-30T04:14:55.437Z,2.53
2023-04-30T04:15:49.580Z,13.16
2023-04-30T04:16:49.596Z,3.17
2023-04-30T04:17:49.736Z,3.50
2023-04-30T04:18:49.759Z,2.85
2023-04-30T04:19:49.850Z,3.17
2023-04-30T04:20:49.938Z,4.79
2023-04-30T04:21:50.027Z,-5.21
2023-04-30T04:22:50.133Z,1.56
2023-04-30T04:23:50.179Z,13.81
2023-04-30T04:24:50.239Z,4.14
2023-04-30T04:25:50.313Z,3.82
2023-04-30T04:26:50.387Z,-5.53
2023-04-30T04:27:50.475Z,3.50
2023-04-30T04:28:50.561Z,11.23
2023-04-30T04:29:50.666Z,-3.92
2023-04-30T04:30:50.722Z,2.21
2023-04-30T04:31:50.847Z,2.85
2023-04-30T04:32:50.934Z,8.97
2023-04-30T04:33:50.936Z,3.50
2023-04-30T04:34:51.013Z,4.46
2023-04-30T04:35:51.098Z,2.85
2023-04-30T04:36:51.195Z,9.30
2023-04-30T04:37:51.271Z,-3.92
2023-04-30T04:38:51.369Z,4.14
2023-04-30T04:39:51.483Z,8.97
2023-04-30T04:40:51.530Z,9.94
2023-04-30T04:41:51.621Z,3.17
2023-04-30T04:42:51.704Z,2.85
2023-04-30T04:43:51.806Z,-1.02
2023-04-30T04:44:51.869Z,3.17
2023-04-30T04:45:57.972Z,8.65
2023-04-30T04:46:52.103Z,3.17
2023-04-30T04:47:52.288Z,5.11
2023-04-30T04:48:52.192Z,3.50
2023-04-30T04:49:52.371Z,4.14
2023-04-30T04:50:52.342Z,-2.30
2023-04-30T04:51:52.440Z,4.79
2023-04-30T04:52:52.550Z,4.46
2023-04-30T04:53:52.616Z,-5.85
2023-04-30T04:54:52.710Z,4.46
2023-04-30T04:55:52.780Z,4.14
2023-04-30T04:56:52.867Z,4.46
2023-04-30T04:57:52.950Z,13.49
2023-04-30T04:58:53.057Z,3.50
2023-04-30T04:59:53.374Z,3.82
2023-04-30T05:00:53.236Z,11.55
2023-04-30T05:01:53.378Z,4.46
2023-04-30T05:02:53.511Z,12.52
2023-04-30T05:03:53.517Z,4.46
2023-04-30T05:04:53.552Z,7.36
2023-04-30T05:05:53.635Z,4.14
2023-04-30T05:06:53.720Z,4.14
2023-04-30T05:07:53.809Z,6.40
2023-04-30T05:08:53.895Z,8.01
2023-04-30T05:09:54.434Z,5.11
2023-04-30T05:10:54.061Z,2.21
2023-04-30T05:11:54.138Z,4.79
2023-04-30T05:12:54.221Z,5.11
2023-04-30T05:13:54.279Z,9.62
2023-04-30T05:14:54.367Z,4.46
2023-04-30T05:15:54.492Z,-5.85
2023-04-30T05:17:00.536Z,-2.95
2023-04-30T05:17:54.675Z,7.04
2023-04-30T05:18:54.701Z,-2.95
2023-04-30T05:19:55.238Z,11.55
2023-04-30T05:20:54.872Z,5.11
2023-04-30T05:21:54.958Z,3.50
2023-04-30T05:22:55.028Z,6.40
2023-04-30T05:23:55.122Z,11.23
2023-04-30T05:24:55.211Z,5.75
2023-04-30T05:25:55.298Z,1.88
2023-04-30T05:26:55.385Z,5.43
2023-04-30T05:27:55.455Z,5.75
2023-04-30T05:28:55.526Z,0.27
2023-04-30T05:29:55.945Z,10.59
2023-04-30T05:30:55.723Z,14.13
2023-04-30T05:31:55.828Z,6.72
2023-04-30T05:32:55.950Z,7.36
2023-04-30T05:33:55.944Z,10.91
2023-04-30T05:34:55.998Z,0.92
2023-04-30T05:35:56.090Z,7.04
2023-04-30T05:36:56.163Z,6.07
2023-04-30T05:37:56.229Z,14.13
2023-04-30T05:38:56.327Z,5.11
2023-04-30T05:39:56.653Z,6.07
2023-04-30T05:40:56.498Z,6.72
2023-04-30T05:41:56.640Z,5.75
2023-04-30T05:42:56.658Z,15.42
2023-04-30T05:43:56.716Z,-0.37
2023-04-30T05:44:56.774Z,10.26
2023-04-30T05:45:56.940Z,0.60
2023-04-30T05:46:56.926Z,6.40
2023-04-30T05:48:03.089Z,9.62
2023-04-30T05:48:57.079Z,14.13
2023-04-30T05:49:57.212Z,6.07
2023-04-30T05:50:57.241Z,5.11
2023-04-30T05:51:57.328Z,6.40
2023-04-30T05:52:57.413Z,6.40
2023-04-30T05:53:57.526Z,6.72
2023-04-30T05:54:57.584Z,6.72
2023-04-30T05:55:57.672Z,7.36
2023-04-30T05:56:57.780Z,7.36
2023-04-30T05:57:57.813Z,16.06
2023-04-30T05:58:57.912Z,0.27
2023-04-30T05:59:58.003Z,7.04
2023-04-30T06:00:58.067Z,11.87
2023-04-30T06:01:58.250Z,7.04
2023-04-30T06:02:58.323Z,-1.98
2023-04-30T06:03:58.348Z,7.69
2023-04-30T06:04:58.455Z,11.23
2023-04-30T06:05:58.539Z,12.52
2023-04-30T06:06:58.586Z,8.65
2023-04-30T06:07:58.670Z,10.91
2023-04-30T06:08:58.766Z,7.36
2023-04-30T06:09:58.920Z,16.06
2023-04-30T06:10:58.929Z,9.30
2023-04-30T06:11:59.002Z,8.01
2023-04-30T06:12:59.083Z,6.72
2023-04-30T06:13:59.176Z,9.30
2023-04-30T06:14:59.256Z,8.01
2023-04-30T06:15:59.435Z,10.91
2023-04-30T06:16:59.464Z,10.59
2023-04-30T06:17:59.554Z,16.39
2023-04-30T06:19:05.625Z,8.97
2023-04-30T06:19:59.661Z,18.96
2023-04-30T06:20:59.754Z,9.30
2023-04-30T06:21:59.839Z,6.40
2023-04-30T06:22:59.946Z,9.30
2023-04-30T06:23:59.971Z,0.60
2023-04-30T06:25:00.059Z,6.07
2023-04-30T06:26:00.148Z,13.81
2023-04-30T06:27:00.235Z,16.71
2023-04-30T06:28:00.317Z,17.35
2023-04-30T06:29:00.369Z,5.75
2023-04-30T06:30:00.458Z,9.62
2023-04-30T06:31:00.582Z,9.62
2023-04-30T06:32:00.616Z,6.07
2023-04-30T06:33:00.767Z,8.97
2023-04-30T06:34:00.768Z,1.56
2023-04-30T06:35:00.850Z,8.65
2023-04-30T06:36:00.954Z,8.33
2023-04-30T06:37:01.037Z,18.00
2023-04-30T06:38:01.123Z,8.65
2023-04-30T06:39:01.225Z,14.45
2023-04-30T06:40:01.263Z,15.10
2023-04-30T06:41:01.349Z,9.30
2023-04-30T06:42:01.438Z,7.69
2023-04-30T06:43:01.510Z,10.59
2023-04-30T06:44:01.570Z,8.97
2023-04-30T06:45:01.656Z,10.59
2023-04-30T06:46:01.782Z,19.29
2023-04-30T06:47:01.854Z,11.87
2023-04-30T06:48:01.961Z,18.64
2023-04-30T06:49:02.006Z,8.97
2023-04-30T06:50:08.559Z,11.55
2023-04-30T06:51:02.186Z,12.20
2023-04-30T06:52:02.261Z,2.85
2023-04-30T06:53:02.337Z,5.43
2023-04-30T06:54:02.468Z,12.84
2023-04-30T06:55:02.545Z,20.58
2023-04-30T06:56:02.614Z,13.81
2023-04-30T06:57:02.709Z,14.13
2023-04-30T06:58:02.768Z,3.17
2023-04-30T06:59:02.861Z,14.13
2023-04-30T07:00:03.007Z,15.10
2023-04-30T07:01:03.057Z,14.78
2023-04-30T07:02:03.090Z,14.78
2023-04-30T07:03:03.308Z,16.06
2023-04-30T07:04:03.290Z,16.39
2023-04-30T07:05:03.334Z,9.94
2023-04-30T07:06:03.421Z,14.45
2023-04-30T07:07:03.509Z,17.03
2023-04-30T07:08:03.585Z,17.35
2023-04-30T07:09:03.709Z,27.02
2023-04-30T07:10:03.765Z,19.29
2023-04-30T07:11:03.827Z,17.03
2023-04-30T07:12:03.921Z,17.35
2023-04-30T07:13:03.999Z,17.35
2023-04-30T07:14:04.086Z,24.12
2023-04-30T07:15:04.202Z,13.49
2023-04-30T07:16:04.263Z,10.26
2023-04-30T07:17:04.338Z,22.83
2023-04-30T07:18:04.600Z,15.74
2023-04-30T07:19:04.510Z,17.68
2023-04-30T07:20:04.634Z,18.96
2023-04-30T07:21:11.156Z,13.49
2023-04-30T07:22:04.768Z,16.71
2023-04-30T07:23:04.857Z,19.61
2023-04-30T07:24:04.959Z,12.84
2023-04-30T07:25:05.064Z,14.78
2023-04-30T07:26:05.117Z,16.39
2023-04-30T07:27:05.229Z,22.51
2023-04-30T07:28:05.325Z,12.52
2023-04-30T07:29:05.404Z,15.74
2023-04-30T07:30:05.512Z,21.54
2023-04-30T07:31:05.581Z,17.35
2023-04-30T07:32:05.653Z,17.68
2023-04-30T07:33:05.785Z,17.68
2023-04-30T07:34:05.813Z,24.12
2023-04-30T07:35:05.905Z,14.13
2023-04-30T07:36:06.087Z,18.64
2023-04-30T07:37:06.095Z,18.32
2023-04-30T07:38:06.185Z,18.00
2023-04-30T07:39:06.258Z,23.80
2023-04-30T07:40:06.334Z,18.32
2023-04-30T07:41:06.437Z,14.78
2023-04-30T07:42:06.496Z,18.96
2023-04-30T07:43:06.586Z,16.71
2023-04-30T07:44:06.688Z,18.96
2023-04-30T07:45:06.788Z,24.12
2023-04-30T07:46:06.945Z,26.38
2023-04-30T07:47:06.935Z,19.29
2023-04-30T07:48:07.088Z,18.00
2023-04-30T07:49:07.085Z,14.45
2023-04-30T07:50:07.180Z,19.93
2023-04-30T07:51:07.299Z,21.54
2023-04-30T07:52:13.892Z,19.61
2023-04-30T07:53:07.432Z,19.93
2023-04-30T07:54:07.536Z,20.25
2023-04-30T07:55:07.626Z,20.58
2023-04-30T07:56:07.736Z,20.58
2023-04-30T07:57:07.788Z,19.29
2023-04-30T07:58:07.853Z,18.64
2023-04-30T07:59:07.942Z,20.58
2023-04-30T08:00:08.037Z,20.58
2023-04-30T08:01:08.172Z,13.49
2023-04-30T08:02:08.253Z,27.99
2023-04-30T08:03:08.334Z,20.25
2023-04-30T08:04:08.453Z,21.22
2023-04-30T08:05:08.439Z,20.25
2023-04-30T08:06:08.565Z,29.60
2023-04-30T08:07:08.616Z,24.77
2023-04-30T08:08:08.670Z,17.35
2023-04-30T08:09:08.788Z,14.45
2023-04-30T08:10:08.838Z,15.74
2023-04-30T08:11:08.924Z,16.39
2023-04-30T08:12:09.002Z,16.71
2023-04-30T08:13:09.058Z,12.20
2023-04-30T08:14:09.123Z,16.39
2023-04-30T08:15:09.225Z,9.62
2023-04-30T08:16:09.359Z,8.33
2023-04-30T08:17:09.386Z,16.71
2023-04-30T08:18:09.578Z,16.71
2023-04-30T08:19:09.555Z,16.71
2023-04-30T08:20:09.616Z,17.68
2023-04-30T08:21:09.705Z,23.48
2023-04-30T08:22:09.789Z,17.03
2023-04-30T08:23:15.866Z,17.68
2023-04-30T08:24:09.952Z,25.41
2023-04-30T08:25:10.049Z,10.91
2023-04-30T08:26:10.139Z,13.49
2023-04-30T08:27:10.241Z,29.60
2023-04-30T08:28:10.303Z,27.67
2023-04-30T08:29:10.377Z,20.90
2023-04-30T08:30:10.424Z,29.60
2023-04-30T08:31:10.520Z,31.21
2023-04-30T08:32:10.689Z,20.58
2023-04-30T08:33:10.761Z,21.22
2023-04-30T08:34:10.750Z,19.93
2023-04-30T08:35:10.846Z,28.63
2023-04-30T08:36:10.941Z,20.90
2023-04-30T08:37:11.031Z,29.60
2023-04-30T08:38:11.149Z,15.42
2023-04-30T08:39:11.199Z,29.92
2023-04-30T08:40:11.303Z,21.87
2023-04-30T08:41:11.397Z,31.53
2023-04-30T08:42:11.437Z,19.93
2023-04-30T08:43:11.567Z,18.00
2023-04-30T08:44:11.628Z,22.51
2023-04-30T08:45:11.724Z,22.83
2023-04-30T08:46:11.838Z,21.87
2023-04-30T08:47:11.913Z,28.63
2023-04-30T08:48:12.013Z,17.68
2023-04-30T08:49:12.074Z,26.05
2023-04-30T08:50:12.177Z,23.80
2023-04-30T08:51:12.246Z,26.70
2023-04-30T08:52:12.323Z,17.03
2023-04-30T08:53:12.385Z,21.87
2023-04-30T08:54:18.630Z,24.44
2023-04-30T08:55:12.560Z,26.05
2023-04-30T08:56:12.660Z,19.93
2023-04-30T08:57:12.735Z,26.70
2023-04-30T08:58:12.823Z,22.19
2023-04-30T08:59:12.948Z,22.51
2023-04-30T09:00:13.020Z,15.42
2023-04-30T09:01:13.125Z,23.80
2023-04-30T09:02:13.213Z,16.39
2023-04-30T09:03:13.313Z,22.19
2023-04-30T09:04:13.535Z,23.15
2023-04-30T09:05:13.388Z,21.87
2023-04-30T09:06:13.491Z,22.83
2023-04-30T09:07:13.531Z,24.12
2023-04-30T09:08:13.611Z,22.51
2023-04-30T09:09:13.714Z,22.51
2023-04-30T09:10:13.792Z,22.51
2023-04-30T09:11:13.890Z,22.51
2023-04-30T09:12:15.237Z,20.58
2023-04-30T09:13:14.042Z,21.54
2023-04-30T09:14:14.118Z,21.22
2023-04-30T09:15:14.217Z,19.61
2023-04-30T09:16:14.329Z,20.58
2023-04-30T09:17:14.339Z,18.96
2023-04-30T09:18:14.578Z,19.61
2023-04-30T09:19:14.516Z,19.61
2023-04-30T09:20:14.640Z,14.78
2023-04-30T09:21:14.682Z,29.28
2023-04-30T09:22:14.768Z,21.87
2023-04-30T09:23:14.858Z,20.58
2023-04-30T09:24:16.087Z,20.25
2023-04-30T09:25:21.239Z,11.23
2023-04-30T09:26:15.085Z,19.93
2023-04-30T09:27:15.175Z,20.25
2023-04-30T09:28:15.277Z,18.00
2023-04-30T09:29:15.383Z,20.25
2023-04-30T09:30:15.466Z,17.35
2023-04-30T09:31:15.562Z,20.25
2023-04-30T09:32:15.620Z,19.61
2023-04-30T09:33:15.717Z,20.90
2023-04-30T09:34:15.804Z,21.22
2023-04-30T09:35:15.902Z,27.34
2023-04-30T09:36:16.006Z,21.54
2023-04-30T09:37:16.053Z,16.06
2023-04-30T09:38:16.143Z,22.19
2023-04-30T09:39:16.371Z,21.87
2023-04-30T09:40:16.397Z,14.78
2023-04-30T09:41:16.389Z,23.48
2023-04-30T09:42:16.462Z,13.49
2023-04-30T09:43:16.542Z,22.51
2023-04-30T09:44:16.630Z,22.19
2023-04-30T09:45:16.729Z,22.83
2023-04-30T09:46:16.849Z,18.64
2023-04-30T09:47:16.921Z,32.18
2023-04-30T09:48:18.073Z,23.15
2023-04-30T09:49:17.051Z,27.34
2023-04-30T09:50:17.140Z,20.25
2023-04-30T09:51:17.238Z,27.34
2023-04-30T09:52:17.380Z,24.12
2023-04-30T09:53:17.418Z,21.22
2023-04-30T09:54:17.520Z,34.76
2023-04-30T09:55:17.606Z,24.44
2023-04-30T09:56:24.190Z,22.83
2023-04-30T09:57:17.835Z,24.12
2023-04-30T09:58:17.853Z,24.77
2023-04-30T09:59:17.952Z,21.22
2023-04-30T10:00:18.058Z,18.00
2023-04-30T10:01:18.176Z,22.19
2023-04-30T10:02:18.205Z,22.51
2023-04-30T10:03:18.289Z,20.90
2023-04-30T10:04:18.421Z,21.87
2023-04-30T10:05:18.435Z,21.54
2023-04-30T10:06:18.571Z,22.51
2023-04-30T10:07:20.866Z,20.90
2023-04-30T10:08:18.673Z,21.22
2023-04-30T10:09:18.758Z,20.90
2023-04-30T10:10:18.860Z,16.71
2023-04-30T10:11:18.946Z,21.87
2023-04-30T10:12:19.032Z,22.51
2023-04-30T10:13:19.079Z,15.42
2023-04-30T10:14:19.141Z,23.48
2023-04-30T10:15:19.230Z,23.80
2023-04-30T10:16:19.376Z,19.93
2023-04-30T10:17:19.408Z,24.44
2023-04-30T10:18:19.471Z,26.05
2023-04-30T10:19:19.578Z,25.41
2023-04-30T10:20:19.702Z,25.41
2023-04-30T10:21:19.750Z,34.43
2023-04-30T10:22:19.838Z,21.22
2023-04-30T10:23:19.975Z,19.61
2023-04-30T10:24:20.032Z,25.09
2023-04-30T10:25:20.127Z,26.38
2023-04-30T10:26:20.248Z,27.99
2023-04-30T10:27:27.707Z,19.61
2023-04-30T10:28:20.392Z,24.44
2023-04-30T10:29:20.457Z,17.35
2023-04-30T10:30:20.519Z,22.83
2023-04-30T10:31:20.605Z,23.48
2023-04-30T10:32:20.742Z,24.44
2023-04-30T10:33:20.838Z,22.51
2023-04-30T10:34:20.865Z,21.22
2023-04-30T10:35:20.965Z,21.87
2023-04-30T10:36:21.013Z,15.74
2023-04-30T10:37:21.097Z,21.54
2023-04-30T10:38:21.190Z,21.87
2023-04-30T10:39:21.297Z,29.28
2023-04-30T10:40:21.351Z,23.15
2023-04-30T10:41:21.468Z,28.96
2023-04-30T10:42:21.507Z,22.51
2023-04-30T10:43:21.602Z,17.03
2023-04-30T10:44:21.720Z,25.09
2023-04-30T10:45:21.787Z,26.05
2023-04-30T10:46:21.923Z,23.80
2023-04-30T10:47:21.983Z,24.44
2023-04-30T10:48:22.044Z,27.02
2023-04-30T10:49:22.134Z,26.70
2023-04-30T10:50:22.195Z,29.28
2023-04-30T10:51:22.283Z,23.15
2023-04-30T10:52:22.339Z,23.48
2023-04-30T10:53:22.439Z,27.99
2023-04-30T10:54:22.497Z,30.24
2023-04-30T10:55:22.590Z,33.47
2023-04-30T10:56:22.695Z,27.67
2023-04-30T10:57:22.804Z,27.34
2023-04-30T10:58:28.872Z,27.34
2023-04-30T10:59:22.912Z,27.99
2023-04-30T11:00:23.015Z,36.69
2023-04-30T11:01:23.124Z,27.99
2023-04-30T11:02:23.266Z,27.99
2023-04-30T11:03:23.268Z,35.40
2023-04-30T11:04:23.411Z,31.53
2023-04-30T11:05:23.439Z,24.12
2023-04-30T11:06:23.511Z,28.63
2023-04-30T11:07:23.570Z,32.50
2023-04-30T11:08:23.679Z,29.60
2023-04-30T11:09:23.736Z,23.80
2023-04-30T11:10:23.866Z,32.18
2023-04-30T11:11:23.995Z,20.58
2023-04-30T11:12:23.981Z,35.40
2023-04-30T11:13:24.062Z,25.09
2023-04-30T11:14:24.163Z,29.28
2023-04-30T11:15:24.265Z,30.24
2023-04-30T11:16:24.332Z,37.33
2023-04-30T11:17:24.433Z,30.24
2023-04-30T11:18:24.479Z,29.28
2023-04-30T11:19:24.585Z,28.96
2023-04-30T11:20:24.671Z,29.28
2023-04-30T11:21:24.774Z,28.96
2023-04-30T11:22:24.868Z,22.51
2023-04-30T11:23:32.277Z,31.21
2023-04-30T11:24:26.175Z,29.92
2023-04-30T11:25:25.126Z,34.76
2023-04-30T11:26:25.225Z,31.21
2023-04-30T11:27:25.321Z,33.14
2023-04-30T11:28:25.412Z,30.24
2023-04-30T11:29:31.552Z,31.86
2023-04-30T11:30:25.661Z,34.76
2023-04-30T11:31:25.721Z,36.69
2023-04-30T11:32:25.766Z,33.47
2023-04-30T11:33:25.808Z,30.89
2023-04-30T11:34:25.913Z,34.11
2023-04-30T11:35:25.977Z,29.28
2023-04-30T11:36:26.080Z,29.60
2023-04-30T11:37:26.159Z,31.53
2023-04-30T11:38:26.237Z,29.28
2023-04-30T11:39:26.329Z,24.44
2023-04-30T11:40:26.396Z,30.57
2023-04-30T11:41:26.494Z,29.28
2023-04-30T11:42:26.600Z,23.80
2023-04-30T11:43:26.694Z,29.28
2023-04-30T11:44:26.748Z,29.92
2023-04-30T11:45:26.858Z,36.37
2023-04-30T11:46:26.948Z,29.92
2023-04-30T11:47:27.095Z,34.43
2023-04-30T11:48:27.122Z,31.86
2023-04-30T11:49:27.221Z,26.38
2023-04-30T11:50:27.469Z,25.73
2023-04-30T11:51:27.394Z,30.89
2023-04-30T11:52:27.486Z,26.05
2023-04-30T11:53:27.548Z,31.21
2023-04-30T11:54:27.641Z,30.57
2023-04-30T11:55:27.765Z,30.24
2023-04-30T11:56:27.811Z,30.89
2023-04-30T11:57:27.918Z,33.14
2023-04-30T11:58:27.956Z,31.21
2023-04-30T11:59:28.096Z,30.24
2023-04-30T12:00:34.135Z,30.57
2023-04-30T12:01:28.216Z,30.57
2023-04-30T12:02:28.401Z,29.92
2023-04-30T12:03:28.457Z,31.53
2023-04-30T12:04:28.563Z,31.53
2023-04-30T12:05:28.549Z,31.21
2023-04-30T12:06:28.707Z,30.89
2023-04-30T12:07:28.706Z,31.53
2023-04-30T12:08:28.785Z,31.21
2023-04-30T12:09:28.847Z,33.79
2023-04-30T12:10:28.944Z,38.30
2023-04-30T12:11:29.026Z,30.57
2023-04-30T12:12:29.126Z,31.21
2023-04-30T12:13:29.228Z,34.11
2023-04-30T12:14:29.274Z,25.73
2023-04-30T12:15:29.369Z,38.95
2023-04-30T12:16:29.482Z,31.53
2023-04-30T12:17:29.575Z,29.28
2023-04-30T12:18:29.650Z,32.82
2023-04-30T12:19:29.747Z,37.33
2023-04-30T12:20:29.843Z,25.73
2023-04-30T12:21:29.932Z,36.04
2023-04-30T12:22:30.030Z,30.57
2023-04-30T12:23:30.132Z,38.30
2023-04-30T12:24:30.176Z,31.53
2023-04-30T12:25:30.274Z,30.24
2023-04-30T12:26:30.369Z,32.50
2023-04-30T12:27:30.460Z,36.37
2023-04-30T12:28:30.561Z,31.53
2023-04-30T12:29:30.616Z,28.63
2023-04-30T12:30:30.719Z,31.21
2023-04-30T12:31:37.351Z,30.89
2023-04-30T12:32:30.975Z,31.53
2023-04-30T12:33:30.972Z,29.92
2023-04-30T12:34:33.504Z,31.21
2023-04-30T12:35:31.206Z,30.89
2023-04-30T12:36:31.243Z,31.53
2023-04-30T12:37:31.337Z,33.14
2023-04-30T12:38:31.448Z,31.53
2023-04-30T12:39:31.541Z,30.89
2023-04-30T12:40:31.594Z,38.62
2023-04-30T12:41:31.677Z,27.99
2023-04-30T12:42:31.772Z,31.53
2023-04-30T12:43:31.865Z,30.57
2023-04-30T12:44:32.001Z,30.24
2023-04-30T12:45:32.027Z,23.15
2023-04-30T12:46:32.122Z,31.21
2023-04-30T12:47:32.245Z,35.40
2023-04-30T12:48:32.322Z,37.66
2023-04-30T12:49:32.447Z,32.18
2023-04-30T12:50:32.465Z,32.18
2023-04-30T12:51:32.526Z,31.86
2023-04-30T12:52:32.647Z,40.56
2023-04-30T12:53:32.784Z,31.86
2023-04-30T12:54:32.879Z,33.14
2023-04-30T12:55:32.895Z,31.86
2023-04-30T12:56:33.002Z,34.76
2023-04-30T12:57:33.066Z,31.86
2023-04-30T12:58:33.152Z,32.18
2023-04-30T12:59:33.252Z,32.50
2023-04-30T13:00:33.336Z,28.96
2023-04-30T13:01:33.420Z,31.53
2023-04-30T13:02:39.481Z,31.53
2023-04-30T13:03:33.646Z,33.14